sensor_id;sensor_type;location;lat;lon;timestamp;P1;durP1;ratioP1;P2;durP2;ratioP2
59314;SDS011;46521;50.160;20.802;2022-08-03T00:06:47;18.73;;;16.73;;
59314;SDS011;46521;50.160;20.802;2022-08-03T00:16:48;19.60;;;17.23;;
59314;SDS011;46521;50.160;20.802;2022-08-03T00:26:49;20.80;;;18.60;;
59314;SDS011;46521;50.160;20.802;2022-08-03T00:36:52;20.43;;;17.57;;
59314;SDS011;46521;50.160;20.802;2022-08-03T00:46:53;16.78;;;14.98;;
59314;SDS011;46521;50.160;20.802;2022-08-03T00:56:54;16.40;;;14.63;;
59314;SDS011;46521;50.160;20.802;2022-08-03T01:06:59;18.03;;;15.38;;
59314;SDS011;46521;50.160;20.802;2022-08-03T01:17:10;20.00;;;17.58;;
59314;SDS011;46521;50.160;20.802;2022-08-03T01:27:25;20.60;;;18.30;;
59314;SDS011;46521;50.160;20.802;2022-08-03T01:37:44;21.67;;;18.17;;
59314;SDS011;46521;50.160;20.802;2022-08-03T01:47:51;21.80;;;19.27;;
59314;SDS011;46521;50.160;20.802;2022-08-03T01:57:54;21.38;;;19.08;;
59314;SDS011;46521;50.160;20.802;2022-08-03T02:07:58;20.30;;;18.28;;
59314;SDS011;46521;50.160;20.802;2022-08-03T02:18:01;19.20;;;17.20;;
59314;SDS011;46521;50.160;20.802;2022-08-03T02:28:09;17.10;;;15.40;;
59314;SDS011;46521;50.160;20.802;2022-08-03T02:38:17;18.57;;;15.40;;
59314;SDS011;46521;50.160;20.802;2022-08-03T02:48:24;18.30;;;15.25;;
59314;SDS011;46521;50.160;20.802;2022-08-03T02:58:28;18.38;;;16.20;;
59314;SDS011;46521;50.160;20.802;2022-08-03T03:08:31;19.40;;;17.00;;
59314;SDS011;46521;50.160;20.802;2022-08-03T03:18:33;20.10;;;17.43;;
59314;SDS011;46521;50.160;20.802;2022-08-03T03:28:37;18.20;;;15.55;;
59314;SDS011;46521;50.160;20.802;2022-08-03T03:38:39;19.20;;;17.13;;
59314;SDS011;46521;50.160;20.802;2022-08-03T03:48:41;20.38;;;17.58;;
59314;SDS011;46521;50.160;20.802;2022-08-03T03:58:43;18.40;;;16.40;;
59314;SDS011;46521;50.160;20.802;2022-08-03T04:08:44;20.40;;;17.55;;
59314;SDS011;46521;50.160;20.802;2022-08-03T04:19:07;18.75;;;16.75;;
59314;SDS011;46521;50.160;20.802;2022-08-03T04:29:11;21.33;;;19.03;;
59314;SDS011;46521;50.160;20.802;2022-08-03T04:39:32;22.10;;;19.73;;
59314;SDS011;46521;50.160;20.802;2022-08-03T04:49:36;20.23;;;18.05;;
59314;SDS011;46521;50.160;20.802;2022-08-03T04:59:38;25.00;;;18.95;;
59314;SDS011;46521;50.160;20.802;2022-08-03T05:09:39;21.83;;;19.57;;
59314;SDS011;46521;50.160;20.802;2022-08-03T05:19:41;21.03;;;18.83;;
59314;SDS011;46521;50.160;20.802;2022-08-03T05:29:42;22.53;;;20.13;;
59314;SDS011;46521;50.160;20.802;2022-08-03T05:39:44;23.50;;;20.90;;
59314;SDS011;46521;50.160;20.802;2022-08-03T05:49:45;23.30;;;20.90;;
59314;SDS011;46521;50.160;20.802;2022-08-03T05:59:46;23.50;;;20.93;;
59314;SDS011;46521;50.160;20.802;2022-08-03T06:09:48;23.20;;;20.90;;
59314;SDS011;46521;50.160;20.802;2022-08-03T06:19:50;21.48;;;19.28;;
59314;SDS011;46521;50.160;20.802;2022-08-03T06:29:53;24.47;;;21.80;;
59314;SDS011;46521;50.160;20.802;2022-08-03T06:39:54;22.90;;;20.58;;
59314;SDS011;46521;50.160;20.802;2022-08-03T06:49:56;20.98;;;18.88;;
59314;SDS011;46521;50.160;20.802;2022-08-03T06:59:57;20.50;;;18.60;;
59314;SDS011;46521;50.160;20.802;2022-08-03T07:10:02;21.90;;;19.70;;
59314;SDS011;46521;50.160;20.802;2022-08-03T07:20:05;20.67;;;18.63;;
59314;SDS011;46521;50.160;20.802;2022-08-03T07:30:08;20.88;;;18.65;;
59314;SDS011;46521;50.160;20.802;2022-08-03T07:40:10;21.03;;;18.93;;
59314;SDS011;46521;50.160;20.802;2022-08-03T07:50:11;19.38;;;17.38;;
59314;SDS011;46521;50.160;20.802;2022-08-03T08:00:16;18.83;;;17.03;;
59314;SDS011;46521;50.160;20.802;2022-08-03T08:10:19;16.53;;;14.83;;
59314;SDS011;46521;50.160;20.802;2022-08-03T08:20:21;16.78;;;14.88;;
59314;SDS011;46521;50.160;20.802;2022-08-03T08:30:24;16.53;;;14.93;;
59314;SDS011;46521;50.160;20.802;2022-08-03T08:40:26;17.03;;;15.23;;
59314;SDS011;46521;50.160;20.802;2022-08-03T08:50:28;15.75;;;14.20;;
59314;SDS011;46521;50.160;20.802;2022-08-03T09:00:30;14.73;;;13.33;;
59314;SDS011;46521;50.160;20.802;2022-08-03T09:10:32;14.37;;;12.87;;
59314;SDS011;46521;50.160;20.802;2022-08-03T09:20:34;13.03;;;11.70;;
59314;SDS011;46521;50.160;20.802;2022-08-03T09:30:37;13.90;;;12.57;;
59314;SDS011;46521;50.160;20.802;2022-08-03T09:40:44;14.28;;;12.88;;
59314;SDS011;46521;50.160;20.802;2022-08-03T09:50:50;14.50;;;13.10;;
59314;SDS011;46521;50.160;20.802;2022-08-03T10:10:56;13.50;;;12.07;;
59314;SDS011;46521;50.160;20.802;2022-08-03T10:21:02;12.33;;;11.13;;
59314;SDS011;46521;50.160;20.802;2022-08-03T10:31:07;12.40;;;11.17;;
59314;SDS011;46521;50.160;20.802;2022-08-03T10:41:10;11.43;;;10.33;;
59314;SDS011;46521;50.160;20.802;2022-08-03T10:51:13;11.40;;;10.13;;
59314;SDS011;46521;50.160;20.802;2022-08-03T11:01:15;11.20;;;10.00;;
59314;SDS011;46521;50.160;20.802;2022-08-03T11:21:19;11.85;;;10.35;;
59314;SDS011;46521;50.160;20.802;2022-08-03T11:41:31;11.78;;;10.03;;
59314;SDS011;46521;50.160;20.802;2022-08-03T11:51:34;10.60;;;9.47;;
59314;SDS011;46521;50.160;20.802;2022-08-03T12:01:37;10.18;;;8.83;;
59314;SDS011;46521;50.160;20.802;2022-08-03T12:11:40;11.20;;;9.70;;
59314;SDS011;46521;50.160;20.802;2022-08-03T12:21:59;9.58;;;8.13;;
59314;SDS011;46521;50.160;20.802;2022-08-03T12:32:01;11.30;;;10.20;;
59314;SDS011;46521;50.160;20.802;2022-08-03T12:42:02;11.73;;;9.88;;
59314;SDS011;46521;50.160;20.802;2022-08-03T12:52:04;10.97;;;9.83;;
59314;SDS011;46521;50.160;20.802;2022-08-03T13:02:05;11.30;;;9.08;;
59314;SDS011;46521;50.160;20.802;2022-08-03T13:12:26;10.68;;;9.25;;
59314;SDS011;46521;50.160;20.802;2022-08-03T13:22:29;10.78;;;8.63;;
59314;SDS011;46521;50.160;20.802;2022-08-03T13:32:32;10.50;;;9.13;;
59314;SDS011;46521;50.160;20.802;2022-08-03T13:42:34;9.10;;;8.00;;
59314;SDS011;46521;50.160;20.802;2022-08-03T13:52:36;9.53;;;8.03;;
59314;SDS011;46521;50.160;20.802;2022-08-03T14:02:38;9.43;;;7.73;;
59314;SDS011;46521;50.160;20.802;2022-08-03T14:12:39;8.50;;;6.73;;
59314;SDS011;46521;50.160;20.802;2022-08-03T14:22:40;8.35;;;7.45;;
59314;SDS011;46521;50.160;20.802;2022-08-03T14:32:42;8.80;;;7.60;;
59314;SDS011;46521;50.160;20.802;2022-08-03T14:42:43;9.97;;;7.87;;
59314;SDS011;46521;50.160;20.802;2022-08-03T14:52:44;9.88;;;7.50;;
59314;SDS011;46521;50.160;20.802;2022-08-03T15:02:46;9.30;;;8.30;;
59314;SDS011;46521;50.160;20.802;2022-08-03T15:12:47;8.25;;;6.90;;
59314;SDS011;46521;50.160;20.802;2022-08-03T15:22:48;8.03;;;6.33;;
59314;SDS011;46521;50.160;20.802;2022-08-03T15:32:50;7.95;;;6.25;;
59314;SDS011;46521;50.160;20.802;2022-08-03T15:42:51;8.95;;;6.78;;
59314;SDS011;46521;50.160;20.802;2022-08-03T15:52:54;7.93;;;6.43;;
59314;SDS011;46521;50.160;20.802;2022-08-03T16:02:56;9.30;;;6.70;;
59314;SDS011;46521;50.160;20.802;2022-08-03T16:12:59;9.00;;;6.10;;
59314;SDS011;46521;50.160;20.802;2022-08-03T16:23:01;9.55;;;6.90;;
59314;SDS011;46521;50.160;20.802;2022-08-03T16:33:04;8.37;;;6.40;;
59314;SDS011;46521;50.160;20.802;2022-08-03T16:43:09;8.55;;;6.23;;
59314;SDS011;46521;50.160;20.802;2022-08-03T16:53:14;9.67;;;6.70;;
59314;SDS011;46521;50.160;20.802;2022-08-03T17:03:16;9.03;;;6.83;;
59314;SDS011;46521;50.160;20.802;2022-08-03T17:13:21;9.60;;;6.78;;
59314;SDS011;46521;50.160;20.802;2022-08-03T17:33:36;9.25;;;6.90;;
59314;SDS011;46521;50.160;20.802;2022-08-03T17:43:38;10.37;;;7.97;;
59314;SDS011;46521;50.160;20.802;2022-08-03T17:53:45;8.37;;;6.50;;
59314;SDS011;46521;50.160;20.802;2022-08-03T18:03:53;10.55;;;6.68;;
59314;SDS011;46521;50.160;20.802;2022-08-03T18:14:02;9.73;;;6.70;;
59314;SDS011;46521;50.160;20.802;2022-08-03T18:24:12;10.18;;;7.28;;
59314;SDS011;46521;50.160;20.802;2022-08-03T18:34:14;10.30;;;7.75;;
59314;SDS011;46521;50.160;20.802;2022-08-03T18:44:16;9.90;;;7.60;;
59314;SDS011;46521;50.160;20.802;2022-08-03T18:54:29;9.78;;;7.80;;
59314;SDS011;46521;50.160;20.802;2022-08-03T19:05:10;11.55;;;8.33;;
59314;SDS011;46521;50.160;20.802;2022-08-03T19:15:12;14.80;;;9.40;;
59314;SDS011;46521;50.160;20.802;2022-08-03T19:25:14;11.50;;;7.40;;
59314;SDS011;46521;50.160;20.802;2022-08-03T19:35:17;11.55;;;7.70;;
59314;SDS011;46521;50.160;20.802;2022-08-03T19:45:22;10.58;;;8.58;;
59314;SDS011;46521;50.160;20.802;2022-08-03T19:55:36;11.20;;;8.73;;
59314;SDS011;46521;50.160;20.802;2022-08-03T20:05:39;11.23;;;9.25;;
59314;SDS011;46521;50.160;20.802;2022-08-03T20:15:41;13.08;;;9.95;;
59314;SDS011;46521;50.160;20.802;2022-08-03T20:25:50;11.68;;;9.53;;
59314;SDS011;46521;50.160;20.802;2022-08-03T20:35:55;13.47;;;10.40;;
59314;SDS011;46521;50.160;20.802;2022-08-03T20:45:56;13.37;;;10.30;;
59314;SDS011;46521;50.160;20.802;2022-08-03T20:55:58;12.43;;;9.78;;
59314;SDS011;46521;50.160;20.802;2022-08-03T21:06:02;32.20;;;28.70;;
59314;SDS011;46521;50.160;20.802;2022-08-03T21:16:06;33.28;;;28.80;;
59314;SDS011;46521;50.160;20.802;2022-08-03T21:26:11;22.18;;;19.93;;
59314;SDS011;46521;50.160;20.802;2022-08-03T21:36:13;33.10;;;29.73;;
59314;SDS011;46521;50.160;20.802;2022-08-03T21:46:17;28.70;;;25.80;;
59314;SDS011;46521;50.160;20.802;2022-08-03T21:56:20;30.93;;;27.73;;
59314;SDS011;46521;50.160;20.802;2022-08-03T22:06:23;27.83;;;24.85;;
59314;SDS011;46521;50.160;20.802;2022-08-03T22:16:27;19.47;;;17.13;;
59314;SDS011;46521;50.160;20.802;2022-08-03T22:26:30;16.33;;;13.93;;
59314;SDS011;46521;50.160;20.802;2022-08-03T22:36:31;13.75;;;11.33;;
59314;SDS011;46521;50.160;20.802;2022-08-03T22:46:34;13.13;;;10.93;;
59314;SDS011;46521;50.160;20.802;2022-08-03T22:56:38;14.57;;;12.27;;
59314;SDS011;46521;50.160;20.802;2022-08-03T23:06:40;15.18;;;12.03;;
59314;SDS011;46521;50.160;20.802;2022-08-03T23:16:42;14.85;;;12.28;;
59314;SDS011;46521;50.160;20.802;2022-08-03T23:26:46;15.53;;;11.57;;
59314;SDS011;46521;50.160;20.802;2022-08-03T23:36:48;15.23;;;12.28;;
59314;SDS011;46521;50.160;20.802;2022-08-03T23:46:50;13.40;;;11.30;;
